createdAt,value
2022-12-20T00:00:23.875Z,101016.50
2022-12-20T00:02:54.715Z,101013.22
2022-12-20T00:05:25.139Z,101010.78
2022-12-20T00:07:55.598Z,101011.16
2022-12-20T00:10:25.560Z,101019.59
2022-12-20T00:12:56.117Z,101017.09
2022-12-20T00:15:28.592Z,101025.53
2022-12-20T00:17:58.529Z,101032.72
2022-12-20T00:20:38.562Z,101033.50
2022-12-20T00:23:09.462Z,101034.72
2022-12-20T00:25:41.282Z,101028.25
2022-12-20T00:28:12.232Z,101030.59
2022-12-20T00:30:44.762Z,101026.16
2022-12-20T00:33:14.657Z,101025.72
2022-12-20T00:35:45.518Z,101021.25
2022-12-20T00:38:15.869Z,101029.22
2022-12-20T00:40:46.417Z,101015.53
2022-12-20T00:43:16.469Z,101007.44
2022-12-20T00:45:49.070Z,101012.59
2022-12-20T00:48:19.475Z,101009.59
2022-12-20T00:50:49.760Z,101007.03
2022-12-20T00:53:26.041Z,101003.28
2022-12-20T00:55:56.650Z,101001.53
2022-12-20T00:58:27.544Z,100991.34
2022-12-20T01:00:59.830Z,100996.50
2022-12-20T01:03:30.904Z,100984.00
2022-12-20T01:06:03.993Z,100987.97
2022-12-20T01:08:35.280Z,100986.69
2022-12-20T01:11:08.640Z,100982.59
2022-12-20T01:13:42.728Z,100972.41
2022-12-20T01:16:18.107Z,100971.13
2022-12-20T01:18:49.868Z,100971.88
2022-12-20T01:21:22.441Z,100968.59
2022-12-20T01:23:53.428Z,100963.69
2022-12-20T01:26:27.045Z,100959.59
2022-12-20T01:28:59.494Z,100950.69
2022-12-20T01:31:33.827Z,100961.94
2022-12-20T01:34:05.247Z,100964.75
2022-12-20T01:36:39.836Z,100964.75
2022-12-20T01:39:14.159Z,100964.38
2022-12-20T01:41:46.862Z,100969.28
2022-12-20T01:45:00.704Z,100958.06
2022-12-20T01:47:38.165Z,100952.44
2022-12-20T01:50:11.286Z,100946.03
2022-12-20T01:52:47.255Z,100952.44
2022-12-20T01:55:24.819Z,100950.00
2022-12-20T01:58:02.083Z,100943.22
2022-12-20T02:00:32.790Z,100941.56
2022-12-20T02:03:11.142Z,100938.41
2022-12-20T02:05:45.618Z,100948.00
2022-12-20T02:08:21.218Z,100939.94
2022-12-20T02:11:18.304Z,100936.66
2022-12-20T02:14:07.101Z,100939.84
2022-12-20T02:16:46.681Z,100933.38
2022-12-20T02:19:53.890Z,100932.91
2022-12-20T02:22:37.787Z,100929.66
2022-12-20T02:25:51.004Z,100932.34
2022-12-20T02:28:52.434Z,100928.25
2022-12-20T02:31:34.161Z,100927.44
2022-12-20T02:34:06.209Z,100924.16
2022-12-20T02:36:36.950Z,100927.78
2022-12-20T02:39:07.474Z,100927.78
2022-12-20T02:41:45.737Z,100934.22
2022-12-20T02:44:38.447Z,100931.44
2022-12-20T02:47:17.184Z,100925.34
2022-12-20T02:49:50.508Z,100918.94
2022-12-20T02:52:26.908Z,100922.53
2022-12-20T02:54:58.403Z,100922.91
2022-12-20T02:57:40.857Z,100926.88
2022-12-20T03:00:16.992Z,100922.44
2022-12-20T03:03:08.535Z,100927.69
2022-12-20T03:05:47.752Z,100930.84
2022-12-20T03:08:18.852Z,100938.44
2022-12-20T03:10:50.210Z,100938.09
2022-12-20T03:13:20.377Z,100941.72
2022-12-20T03:15:50.602Z,100945.69
2022-12-20T03:18:23.064Z,100947.69
2022-12-20T03:20:54.055Z,100944.06
2022-12-20T03:23:24.581Z,100948.06
2022-12-20T03:25:55.336Z,100950.03
2022-12-20T03:28:25.184Z,100942.31
2022-12-20T03:30:55.943Z,100945.47
2022-12-20T03:33:28.434Z,100942.66
2022-12-20T03:35:58.999Z,100947.81
2022-12-20T03:38:30.203Z,100950.63
2022-12-20T03:41:00.476Z,100948.97
2022-12-20T03:43:30.914Z,100954.16
2022-12-20T03:46:01.441Z,100960.56
2022-12-20T03:48:36.686Z,100966.19
2022-12-20T03:51:06.665Z,100952.16
2022-12-20T03:53:37.400Z,100960.94
2022-12-20T03:56:08.190Z,100960.94
2022-12-20T03:58:39.888Z,100970.50
2022-12-20T04:01:25.511Z,100975.28
2022-12-20T04:03:59.479Z,100977.63
2022-12-20T04:06:30.352Z,100975.50
2022-12-20T04:09:00.463Z,100977.84
2022-12-20T04:11:30.898Z,100981.34
2022-12-20T04:14:00.825Z,100985.69
2022-12-20T04:16:32.076Z,100976.44
2022-12-20T04:19:04.440Z,100986.03
2022-12-20T04:21:37.216Z,100982.41
2022-12-20T04:24:09.187Z,100987.22
2022-12-20T04:26:39.952Z,100986.38
2022-12-20T04:29:10.785Z,100986.38
2022-12-20T04:31:40.886Z,100987.09
2022-12-20T04:34:12.961Z,100986.63
2022-12-20T04:36:42.630Z,100984.97
2022-12-20T04:39:13.513Z,100975.75
2022-12-20T04:41:43.349Z,100978.09
2022-12-20T04:44:13.855Z,100982.06
2022-12-20T04:46:44.144Z,100988.84
2022-12-20T04:49:16.174Z,100982.41
2022-12-20T04:51:46.117Z,100990.00
2022-12-20T04:54:15.130Z,100981.56
2022-12-20T04:56:45.785Z,100986.03
2022-12-20T04:59:15.757Z,100992.00
2022-12-20T05:01:46.579Z,100993.97
2022-12-20T05:04:19.429Z,100992.31
2022-12-20T05:06:49.558Z,100990.69
2022-12-20T05:09:19.770Z,100989.53
2022-12-20T05:11:50.552Z,101001.56
2022-12-20T05:14:20.580Z,100995.97
2022-12-20T05:16:51.226Z,101003.22
2022-12-20T05:19:23.097Z,101001.22
2022-12-20T05:22:10.109Z,101003.66
2022-12-20T05:25:00.425Z,101004.50
2022-12-20T05:27:31.388Z,100998.88
2022-12-20T05:30:01.546Z,101012.56
2022-12-20T05:32:31.797Z,101006.63
2022-12-20T05:35:04.429Z,101012.34
2022-12-20T05:37:34.654Z,101011.97
2022-12-20T05:40:05.667Z,101011.28
2022-12-20T05:42:36.338Z,101014.56
2022-12-20T05:45:07.560Z,101012.22
2022-12-20T05:47:39.347Z,101009.88
2022-12-20T05:50:18.932Z,101013.16
2022-12-20T05:52:49.693Z,101013.63
2022-12-20T05:55:20.544Z,101016.06
2022-12-20T05:57:51.051Z,101006.50
2022-12-20T06:00:21.736Z,101011.78
2022-12-20T06:02:52.535Z,101016.22
2022-12-20T06:05:25.249Z,101013.09
2022-12-20T06:07:56.490Z,101019.16
2022-12-20T06:10:27.265Z,101023.25
2022-12-20T06:12:57.722Z,101022.22
2022-12-20T06:15:27.838Z,101016.69
2022-12-20T06:17:58.492Z,101023.22
2022-12-20T06:20:31.669Z,101023.81
2022-12-20T06:23:02.099Z,101032.34
2022-12-20T06:25:33.480Z,101023.22
2022-12-20T06:28:04.323Z,101024.50
2022-12-20T06:30:34.485Z,101021.84
2022-12-20T06:33:05.926Z,101025.22
2022-12-20T06:35:37.948Z,101017.81
2022-12-20T06:38:08.508Z,101018.16
2022-12-20T06:40:39.018Z,101016.66
2022-12-20T06:43:12.711Z,101003.09
2022-12-20T06:45:43.389Z,101010.16
2022-12-20T06:48:13.815Z,101014.06
2022-12-20T06:50:50.687Z,101015.94
2022-12-20T06:53:24.296Z,101021.84
2022-12-20T06:55:55.087Z,101011.69
2022-12-20T06:58:25.330Z,101009.47
2022-12-20T07:00:56.914Z,101004.03
2022-12-20T07:03:27.468Z,101010.25
2022-12-20T07:06:00.258Z,101014.41
2022-12-20T07:08:31.549Z,101018.50
2022-12-20T07:11:11.235Z,101016.09
2022-12-20T07:13:41.947Z,101020.50
2022-12-20T07:16:11.885Z,101016.81
2022-12-20T07:18:42.418Z,101012.28
2022-12-20T07:21:17.656Z,101017.03
2022-12-20T07:23:48.790Z,101012.50
2022-12-20T07:26:19.285Z,101011.88
2022-12-20T07:28:49.928Z,101008.50
2022-12-20T07:31:20.869Z,101007.16
2022-12-20T07:33:51.062Z,101006.19
2022-12-20T07:36:24.027Z,101015.34
2022-12-20T07:38:55.463Z,100998.56
2022-12-20T07:41:26.423Z,101000.78
2022-12-20T07:43:56.316Z,100993.22
2022-12-20T07:46:26.133Z,100992.97
2022-12-20T07:48:57.346Z,100983.81
2022-12-20T07:51:36.644Z,100983.56
2022-12-20T07:54:13.830Z,100993.00
2022-12-20T07:56:49.668Z,100991.13
2022-12-20T07:59:26.072Z,100978.19
2022-12-20T08:02:02.369Z,100979.47
2022-12-20T08:04:36.432Z,100977.91
2022-12-20T08:07:11.033Z,100979.22
2022-12-20T08:09:47.354Z,100973.19
2022-12-20T08:12:22.076Z,100971.16
2022-12-20T08:14:56.546Z,100965.53
2022-12-20T08:17:27.579Z,100958.59
2022-12-20T08:19:58.308Z,100955.34
2022-12-20T08:22:31.402Z,100951.19
2022-12-20T08:25:02.184Z,100949.50
2022-12-20T08:27:34.389Z,100954.28
2022-12-20T08:30:04.432Z,100944.78
2022-12-20T08:32:34.923Z,100940.09
2022-12-20T08:35:05.500Z,100939.41
2022-12-20T08:37:38.598Z,100926.94
2022-12-20T08:40:10.749Z,100924.63
2022-12-20T08:42:41.328Z,100914.50
2022-12-20T08:45:12.973Z,100912.97
2022-12-20T08:47:43.848Z,100910.41
2022-12-20T08:50:15.704Z,100905.88
2022-12-20T08:52:49.993Z,100903.53
2022-12-20T08:55:26.136Z,100902.13
2022-12-20T08:57:58.419Z,100892.50
2022-12-20T09:00:31.471Z,100893.88
2022-12-20T09:03:02.081Z,100893.72
2022-12-20T09:05:36.233Z,100896.00
2022-12-20T09:08:07.974Z,100886.78
2022-12-20T09:10:37.955Z,100887.75
2022-12-20T09:13:08.193Z,100885.06
2022-12-20T09:15:39.168Z,100881.50
2022-12-20T09:18:09.569Z,100872.25
2022-12-20T09:20:45.592Z,100866.66
2022-12-20T09:23:17.853Z,100869.59
2022-12-20T09:25:53.561Z,100859.91
2022-12-20T09:28:24.521Z,100856.31
2022-12-20T09:30:54.665Z,100855.13
2022-12-20T09:33:24.928Z,100853.13
2022-12-20T09:35:54.471Z,100846.19
2022-12-20T09:38:26.847Z,100847.31
2022-12-20T09:41:01.247Z,100847.69
2022-12-20T09:43:31.806Z,100836.72
2022-12-20T09:46:05.553Z,100842.06
2022-12-20T09:48:40.540Z,100840.94
2022-12-20T09:51:28.383Z,100849.16
2022-12-20T09:54:15.540Z,100836.59
2022-12-20T09:56:53.555Z,100831.00
2022-12-20T09:59:24.560Z,100837.13
2022-12-20T10:01:55.145Z,100834.28
2022-12-20T10:04:29.405Z,100820.53
2022-12-20T10:07:25.206Z,100832.34
2022-12-20T10:10:39.110Z,100817.34
2022-12-20T10:13:24.514Z,100816.50
2022-12-20T10:16:02.687Z,100811.25
2022-12-20T10:18:56.220Z,100803.53
2022-12-20T10:21:43.875Z,100799.88
2022-12-20T10:24:21.337Z,100796.66
2022-12-20T10:26:55.388Z,100799.91
2022-12-20T10:29:25.907Z,100801.06
2022-12-20T10:32:03.106Z,100794.59
2022-12-20T10:34:38.081Z,100788.91
2022-12-20T10:37:18.783Z,100779.19
2022-12-20T10:39:53.184Z,100787.28
2022-12-20T10:42:39.405Z,100779.13
2022-12-20T10:45:36.436Z,100778.28
2022-12-20T10:48:09.722Z,100774.59
2022-12-20T10:50:40.051Z,100770.94
2022-12-20T10:53:25.924Z,100765.22
2022-12-20T10:55:57.337Z,100772.09
2022-12-20T10:58:38.358Z,100777.75
2022-12-20T11:01:16.390Z,100769.59
2022-12-20T11:03:59.347Z,100771.19
2022-12-20T11:06:43.849Z,100762.25
2022-12-20T11:09:29.450Z,100766.69
2022-12-20T11:12:07.426Z,100761.78
2022-12-20T11:14:41.025Z,100759.72
2022-12-20T11:17:31.016Z,100768.59
2022-12-20T11:20:27.707Z,100761.69
2022-12-20T11:23:19.696Z,100764.88
2022-12-20T11:26:15.718Z,100770.13
2022-12-20T11:29:09.433Z,100768.03
2022-12-20T11:31:59.571Z,100756.63
2022-12-20T11:34:47.122Z,100757.81
2022-12-20T11:37:27.004Z,100759.00
2022-12-20T11:40:19.198Z,100765.06
2022-12-20T11:43:15.014Z,100757.75
2022-12-20T11:46:00.334Z,100756.09
2022-12-20T11:48:54.066Z,100756.47
2022-12-20T11:51:30.357Z,100755.63
2022-12-20T11:54:13.939Z,100750.75
2022-12-20T11:56:47.508Z,100749.94
2022-12-20T11:59:31.360Z,100751.91
2022-12-20T12:02:12.830Z,100751.06
2022-12-20T12:04:51.171Z,100750.22
2022-12-20T12:07:26.037Z,100743.28
2022-12-20T12:10:03.154Z,100746.09
2022-12-20T12:12:39.887Z,100748.88
2022-12-20T12:15:35.599Z,100745.59
2022-12-20T12:18:20.351Z,100743.56
2022-12-20T12:21:08.487Z,100737.84
2022-12-20T12:23:53.357Z,100739.47
2022-12-20T12:26:28.061Z,100740.22
2022-12-20T12:29:03.178Z,100743.47
2022-12-20T12:31:46.263Z,100741.41
2022-12-20T12:34:50.264Z,100741.00
2022-12-20T12:38:06.031Z,100740.53
2022-12-20T12:41:33.024Z,100732.81
2022-12-20T12:44:33.063Z,100737.63
2022-12-20T12:47:19.793Z,100731.16
2022-12-20T12:49:55.053Z,100743.69
2022-12-20T12:52:46.623Z,100741.25
2022-12-20T12:55:45.797Z,100742.00
2022-12-20T12:58:34.609Z,100754.09
2022-12-20T13:01:09.466Z,100744.38
2022-12-20T13:03:46.438Z,100746.72
2022-12-20T13:06:59.892Z,100743.81
2022-12-20T13:09:43.392Z,100743.34
2022-12-20T13:13:02.436Z,100746.84
2022-12-20T13:16:14.403Z,100751.56
2022-12-20T13:19:20.801Z,100751.84
2022-12-20T13:21:57.755Z,100753.41
2022-12-20T13:24:54.066Z,100748.91
2022-12-20T13:27:39.683Z,100750.03
2022-12-20T13:30:33.777Z,100753.16
2022-12-20T13:33:25.122Z,100761.53
2022-12-20T13:36:22.229Z,100753.41
2022-12-20T13:38:59.575Z,100760.13
2022-12-20T13:41:40.311Z,100763.75
2022-12-20T13:44:42.435Z,100757.97
2022-12-20T13:47:37.322Z,100770.34
2022-12-20T13:50:39.148Z,100768.66
2022-12-20T13:53:19.676Z,100767.81
2022-12-20T13:55:50.609Z,100772.19
2022-12-20T13:58:25.120Z,100768.97
2022-12-20T14:01:05.904Z,100770.16
2022-12-20T14:03:48.525Z,100778.16
2022-12-20T14:06:26.842Z,100773.25
2022-12-20T14:08:57.523Z,100773.19
2022-12-20T14:11:30.516Z,100776.41
2022-12-20T14:14:03.160Z,100770.72
2022-12-20T14:16:35.817Z,100778.72
2022-12-20T14:19:17.022Z,100780.31
2022-12-20T14:21:50.228Z,100781.84
2022-12-20T14:24:23.816Z,100779.41
2022-12-20T14:26:56.063Z,100779.81
2022-12-20T14:29:32.809Z,100784.59
2022-12-20T14:32:02.726Z,100778.91
2022-12-20T14:34:41.726Z,100781.28
2022-12-20T14:37:32.327Z,100780.03
2022-12-20T14:40:17.844Z,100778.41
2022-12-20T14:42:48.387Z,100784.44
2022-12-20T14:45:29.330Z,100779.25
2022-12-20T14:48:16.955Z,100786.06
2022-12-20T14:50:56.207Z,100789.25
2022-12-20T14:53:30.121Z,100788.06
2022-12-20T14:56:00.759Z,100788.06
2022-12-20T14:58:34.208Z,100792.91
2022-12-20T15:01:21.426Z,100797.34
2022-12-20T15:03:56.984Z,100798.16
2022-12-20T15:06:48.573Z,100790.88
2022-12-20T15:09:19.381Z,100798.91
2022-12-20T15:11:51.004Z,100801.72
2022-12-20T15:14:38.622Z,100800.09
2022-12-20T15:17:16.432Z,100800.47
2022-12-20T15:19:47.155Z,100802.47
2022-12-20T15:22:22.657Z,100809.31
2022-12-20T15:24:52.961Z,100797.59
2022-12-20T15:27:24.963Z,100803.22
2022-12-20T15:29:54.714Z,100808.06
2022-12-20T15:32:31.736Z,100815.69
2022-12-20T15:35:02.409Z,100823.69
2022-12-20T15:37:34.018Z,100825.28
2022-12-20T15:40:04.059Z,100822.00
2022-12-20T15:42:34.196Z,100827.19
2022-12-20T15:45:05.183Z,100830.41
2022-12-20T15:47:35.174Z,100829.97
2022-12-20T15:50:05.787Z,100824.69
2022-12-20T15:52:37.893Z,100827.91
2022-12-20T15:55:08.698Z,100839.53
2022-12-20T15:57:39.020Z,100833.44
2022-12-20T16:00:12.008Z,100838.28
2022-12-20T16:02:42.254Z,100843.47
2022-12-20T16:05:16.002Z,100848.31
2022-12-20T16:07:48.332Z,100850.66
2022-12-20T16:10:18.876Z,100857.47
2022-12-20T16:12:49.188Z,100853.00
2022-12-20T16:15:26.381Z,100858.66
2022-12-20T16:17:56.367Z,100851.75
2022-12-20T16:20:27.962Z,100856.56
2022-12-20T16:23:00.137Z,100865.41
2022-12-20T16:25:35.719Z,100858.13
2022-12-20T16:28:06.859Z,100856.09
2022-12-20T16:30:37.317Z,100864.53
2022-12-20T16:33:07.296Z,100864.53
2022-12-20T16:35:39.277Z,100866.53
2022-12-20T16:38:13.064Z,100864.88
2022-12-20T16:40:43.420Z,100862.06
2022-12-20T16:43:18.979Z,100872.53
2022-12-20T16:45:49.691Z,100871.69
2022-12-20T16:48:19.407Z,100869.28
2022-12-20T16:50:49.580Z,100869.28
2022-12-20T16:53:22.149Z,100878.91
2022-12-20T16:55:52.100Z,100871.63
2022-12-20T16:58:23.737Z,100872.47
2022-12-20T17:00:59.074Z,100869.19
2022-12-20T17:03:29.241Z,100872.00
2022-12-20T17:05:59.458Z,100876.41
2022-12-20T17:11:22.267Z,100875.13
2022-12-20T17:13:54.304Z,100863.78
2022-12-20T17:16:25.279Z,100874.25
2022-12-20T17:18:58.541Z,100863.31
2022-12-20T17:24:28.639Z,100875.69
2022-12-20T17:26:59.083Z,100874.06
2022-12-20T17:29:29.139Z,100875.28
2022-12-20T17:31:59.264Z,100878.09
2022-12-20T17:34:31.788Z,100881.72
2022-12-20T17:37:02.260Z,100882.91
2022-12-20T17:39:33.558Z,100879.63
2022-12-20T17:42:03.706Z,100871.56
2022-12-20T17:44:34.303Z,100875.94
2022-12-20T17:47:05.523Z,100881.13
2022-12-20T17:49:36.025Z,100879.03
2022-12-20T17:52:06.619Z,100882.22
2022-12-20T17:54:40.489Z,100887.41
2022-12-20T17:57:17.034Z,100882.94
2022-12-20T17:59:48.018Z,100876.06
2022-12-20T18:02:24.820Z,100881.69
2022-12-20T18:04:55.764Z,100884.88
2022-12-20T18:07:26.630Z,100890.88
2022-12-20T18:09:59.514Z,100890.88
2022-12-20T18:12:34.108Z,100895.25
2022-12-20T18:15:12.427Z,100899.25
2022-12-20T18:17:42.897Z,100897.22
2022-12-20T18:20:15.593Z,100897.59
2022-12-20T18:22:45.833Z,100900.41
2022-12-20T18:25:18.681Z,100898.78
2022-12-20T18:27:49.221Z,100902.78
2022-12-20T18:30:19.812Z,100896.31
2022-12-20T18:32:50.507Z,100897.50
2022-12-20T18:35:21.137Z,100898.66
2022-12-20T18:37:52.506Z,100893.41
2022-12-20T18:40:26.342Z,100894.59
2022-12-20T18:43:01.132Z,100892.97
2022-12-20T18:45:38.270Z,100891.31
2022-12-20T18:48:09.176Z,100892.50
2022-12-20T18:50:39.501Z,100890.06
2022-12-20T18:53:09.947Z,100886.41
2022-12-20T18:55:42.731Z,100883.97
2022-12-20T18:58:13.529Z,100890.00
2022-12-20T19:00:45.497Z,100895.97
2022-12-20T19:03:16.190Z,100897.97
2022-12-20T19:05:46.643Z,100897.16
2022-12-20T19:08:17.053Z,100893.91
2022-12-20T19:10:49.514Z,100904.31
2022-12-20T19:13:19.641Z,100901.91
2022-12-20T19:15:49.670Z,100903.06
2022-12-20T19:18:20.252Z,100896.97
2022-12-20T19:20:50.740Z,100899.34
2022-12-20T19:23:21.207Z,100904.16
2022-12-20T19:25:53.671Z,100896.91
2022-12-20T19:28:24.408Z,100905.72
2022-12-20T19:30:56.099Z,100904.00
2022-12-20T19:33:26.677Z,100906.25
2022-12-20T19:35:56.986Z,100907.44
2022-12-20T19:38:27.101Z,100905.81
2022-12-20T19:40:58.682Z,100905.81
2022-12-20T19:43:29.566Z,100906.53
2022-12-20T19:45:59.929Z,100911.69
2022-12-20T19:48:30.834Z,100898.81
2022-12-20T19:51:05.391Z,100899.19
2022-12-20T19:53:35.878Z,100893.09
2022-12-20T19:56:09.806Z,100900.72
2022-12-20T19:58:41.247Z,100902.28
2022-12-20T20:01:12.480Z,100901.00
2022-12-20T20:03:43.118Z,100897.75
2022-12-20T20:06:13.657Z,100900.09
2022-12-20T20:08:45.873Z,100902.47
2022-12-20T20:11:19.314Z,100905.28
2022-12-20T20:13:49.536Z,100907.25
2022-12-20T20:16:22.545Z,100911.28
2022-12-20T20:18:53.402Z,100911.28
2022-12-20T20:21:26.329Z,100907.63
2022-12-20T20:23:57.835Z,100911.28
2022-12-20T20:26:32.476Z,100908.81
2022-12-20T20:29:04.186Z,100908.00
2022-12-20T20:31:34.743Z,100901.53
2022-12-20T20:34:05.937Z,100915.19
2022-12-20T20:36:35.861Z,100905.91
2022-12-20T20:39:10.647Z,100905.44
2022-12-20T20:41:43.431Z,100905.75
2022-12-20T20:44:14.823Z,100901.66
2022-12-20T20:46:45.146Z,100904.00
2022-12-20T20:49:15.790Z,100905.56
2022-12-20T20:51:45.973Z,100901.41
2022-12-20T20:54:16.284Z,100897.81
2022-12-20T20:56:48.709Z,100907.41
2022-12-20T20:59:19.022Z,100910.59
2022-12-20T21:01:49.459Z,100904.16
2022-12-20T21:04:20.000Z,100903.34
2022-12-20T21:06:49.661Z,100900.88
2022-12-20T21:09:19.945Z,100906.50
2022-12-20T21:11:52.563Z,100908.13
2022-12-20T21:14:45.057Z,100906.50
2022-12-20T21:17:13.005Z,100909.31
2022-12-20T21:19:44.690Z,100917.75
2022-12-20T21:22:14.653Z,100913.28
2022-12-20T21:24:45.114Z,100917.31
2022-12-20T21:27:17.919Z,100915.31
2022-12-20T21:29:48.231Z,100909.69
2022-12-20T21:32:18.634Z,100908.41
2022-12-20T21:34:49.086Z,100901.16
2022-12-20T21:37:19.574Z,100907.50
2022-12-20T21:39:49.680Z,100907.88
2022-12-20T21:42:22.264Z,100905.41
2022-12-20T21:44:52.509Z,100910.59
2022-12-20T21:47:23.046Z,100900.16
2022-12-20T21:49:53.569Z,100899.34
2022-12-20T21:52:24.111Z,100902.16
2022-12-20T21:54:54.596Z,100899.69
2022-12-20T21:57:27.090Z,100889.97
2022-12-20T21:59:57.567Z,100897.50
2022-12-20T22:02:28.307Z,100888.97
2022-12-20T22:04:59.471Z,100890.13
2022-12-20T22:07:29.328Z,100895.34
2022-12-20T22:09:59.613Z,100895.66
2022-12-20T22:12:31.729Z,100893.22
2022-12-20T22:15:02.257Z,100885.97
2022-12-20T22:17:35.887Z,100891.97
2022-12-20T22:20:07.089Z,100888.31
2022-12-20T22:22:37.163Z,100889.16
2022-12-20T22:25:08.314Z,100886.69
2022-12-20T22:27:40.596Z,100886.25
2022-12-20T22:30:12.349Z,100888.22
2022-12-20T22:32:42.779Z,100889.78
2022-12-20T22:35:17.610Z,100892.13
2022-12-20T22:37:52.242Z,100890.00
2022-12-20T22:40:23.841Z,100894.00
2022-12-20T22:42:56.229Z,100895.19
2022-12-20T22:45:26.660Z,100897.19
2022-12-20T22:47:57.105Z,100890.28
2022-12-20T22:50:27.592Z,100892.28
2022-12-20T22:52:57.961Z,100895.06
2022-12-20T22:55:28.200Z,100889.47
2022-12-20T22:58:00.393Z,100896.25
2022-12-20T23:00:31.030Z,100893.81
2022-12-20T23:03:01.347Z,100892.16
2022-12-20T23:05:31.719Z,100897.00
2022-12-20T23:08:01.965Z,100889.34
2022-12-20T23:10:48.847Z,100892.16
2022-12-20T23:13:37.739Z,100893.34
2022-12-20T23:16:08.580Z,100893.34
2022-12-20T23:18:38.775Z,100890.19
2022-12-20T23:21:26.100Z,100887.38
2022-12-20T23:23:56.792Z,100886.91
2022-12-20T23:26:28.158Z,100887.28
2022-12-20T23:29:00.037Z,100884.00
2022-12-20T23:31:30.527Z,100887.13
2022-12-20T23:34:01.965Z,100887.13
2022-12-20T23:36:33.759Z,100888.34
2022-12-20T23:39:03.977Z,100880.72
2022-12-20T23:41:33.916Z,100884.69
2022-12-20T23:44:07.803Z,100882.72
2022-12-20T23:46:38.860Z,100884.69
2022-12-20T23:49:09.261Z,100883.06
2022-12-20T23:51:39.828Z,100885.41
2022-12-20T23:54:10.795Z,100891.38
2022-12-20T23:56:41.345Z,100886.94
2022-12-20T23:59:13.736Z,100883.66
